Great Hebei — VRFU6 — position and weather

sailwx.info

Track history (hours):
 
Tides and Currents Weather Stations Pressure Air Temp Water Temp Dewpoint Dewpoint Depression Visibility Wind Speed Wind Dir Waves Ship Positions

Great Hebei

Last reported at 2017-Jun-11 04:33 UTC. Time now 2017-Jun-26 03:46 UTC.
Position N 01°19' E 103°20'.
Warning: this ship's position is 14 days out of date.

Length 295 m; draft 9.1 m.

Type: Cargo ship. MMSI: 477617100.

Date/timePositionNaut miles runAvg speedWind from/ knotsBaromVisibWave heightAir tempDewpointWater temp
2017-Jun-11 04:33N 01°19' E 103°20'0 9.2
2017-Jun-11 04:30N 01°19' E 103°20'5 9.9
2017-Jun-11 04:00N 01°15' E 103°24'5 9.8
2017-Jun-11 03:30N 01°14' E 103°28'510.6
2017-Jun-11 03:01N 01°12' E 103°34'510.5
2017-Jun-11 02:30N 01°11' E 103°39'611.2
2017-Jun-11 02:01N 01°09' E 103°44'510.4
2017-Jun-11 01:30N 01°11' E 103°48'510.8
2017-Jun-11 01:00N 01°13' E 103°53'4 7.5
2017-Jun-11 00:28N 01°16' E 103°56'2 0.8
2017-Jun-10 22:24N 01°17' E 103°55'0 0.0
2017-Jun-10 21:15N 01°17' E 103°55'0 0.0
2017-Jun-10 20:45N 01°17' E 103°55'0 0.0
2017-Jun-10 19:57N 01°17' E 103°55'0 0.0
2017-Jun-10 19:21N 01°17' E 103°55'0 0.0
2017-Jun-10 18:54N 01°17' E 103°55'0 0.0
2017-Jun-10 18:06N 01°17' E 103°55'0 0.1
2017-Jun-10 17:54N 01°17' E 103°55'0 0.0
2017-Jun-10 17:24N 01°17' E 103°55'0 0.0
2017-Jun-10 15:39N 01°17' E 103°55'0 0.3
2017-Jun-10 15:27N 01°17' E 103°55'0 0.3
2017-Jun-10 14:54N 01°17' E 103°55'0 0.3
2017-Jun-10 13:57N 01°17' E 103°55'0 0.1
2017-Jun-10 13:30N 01°17' E 103°55'0 0.1
2017-Jun-10 12:39N 01°17' E 103°55'0 0.4
2017-Jun-10 12:30N 01°17' E 103°55'0 0.1
2017-Jun-10 11:57N 01°17' E 103°55'0 0.0
2017-Jun-10 11:21N 01°17' E 103°55'0 0.2
2017-Jun-10 10:59N 01°17' E 103°55'0 0.1
2017-Jun-10 09:57N 01°17' E 103°55'0 0.1
2017-Jun-10 07:45N 01°17' E 103°55'0 0.1
2017-Jun-10 05:36N 01°17' E 103°55'0 0.2
2017-Jun-10 05:20N 01°17' E 103°55'0 0.0
2017-Jun-10 05:00N 01°17' E 103°55'0 0.0
2017-Jun-10 04:23N 01°17' E 103°55'0 0.0
2017-Jun-10 03:57N 01°17' E 103°55'0 0.0
2017-Jun-10 03:18N 01°17' E 103°55'0 0.1
2017-Jun-09 23:08N 01°17' E 103°55'0 0.5
2017-Jun-09 22:59N 01°17' E 103°55'3 5.8
2017-Jun-09 22:26N 01°16' E 103°58'1 3.4
2017-Jun-09 22:01N 01°16' E 103°60'4 5.8
2017-Jun-09 21:23N 01°16' E 104°03'  
2017-Jun-02 14:02N 22°38' E 119°49'5 9.0
2017-Jun-02 13:29N 22°42' E 119°50'  
Track history (hours):
 
Tides and Currents Weather Stations Pressure Air Temp Water Temp Dewpoint Dewpoint Depression Visibility Wind Speed Wind Dir Waves Ship Positions

Great Hebei

Last reported at 2017-Jun-11 04:33 UTC. Time now 2017-Jun-26 03:46 UTC.
Position N 01°19' E 103°20'.
Warning: this ship's position is 14 days out of date.

Length 295 m; draft 9.1 m.

Type: Cargo ship. MMSI: 477617100.

Date/timePositionNaut miles runAvg speedWind from/ knotsBaromVisibWave heightAir tempDewpointWater temp
2017-Jun-11 04:33N 01°19' E 103°20'0 9.2
2017-Jun-11 04:30N 01°19' E 103°20'5 9.9
2017-Jun-11 04:00N 01°15' E 103°24'5 9.8
2017-Jun-11 03:30N 01°14' E 103°28'510.6
2017-Jun-11 03:01N 01°12' E 103°34'510.5
2017-Jun-11 02:30N 01°11' E 103°39'611.2
2017-Jun-11 02:01N 01°09' E 103°44'510.4
2017-Jun-11 01:30N 01°11' E 103°48'510.8
2017-Jun-11 01:00N 01°13' E 103°53'4 7.5
2017-Jun-11 00:28N 01°16' E 103°56'2 0.8
2017-Jun-10 22:24N 01°17' E 103°55'0 0.0
2017-Jun-10 21:15N 01°17' E 103°55'0 0.0
2017-Jun-10 20:45N 01°17' E 103°55'0 0.0
2017-Jun-10 19:57N 01°17' E 103°55'0 0.0
2017-Jun-10 19:21N 01°17' E 103°55'0 0.0
2017-Jun-10 18:54N 01°17' E 103°55'0 0.0
2017-Jun-10 18:06N 01°17' E 103°55'0 0.1
2017-Jun-10 17:54N 01°17' E 103°55'0 0.0
2017-Jun-10 17:24N 01°17' E 103°55'0 0.0
2017-Jun-10 15:39N 01°17' E 103°55'0 0.3
2017-Jun-10 15:27N 01°17' E 103°55'0 0.3
2017-Jun-10 14:54N 01°17' E 103°55'0 0.3
2017-Jun-10 13:57N 01°17' E 103°55'0 0.1
2017-Jun-10 13:30N 01°17' E 103°55'0 0.1
2017-Jun-10 12:39N 01°17' E 103°55'0 0.4
2017-Jun-10 12:30N 01°17' E 103°55'0 0.1
2017-Jun-10 11:57N 01°17' E 103°55'0 0.0
2017-Jun-10 11:21N 01°17' E 103°55'0 0.2
2017-Jun-10 10:59N 01°17' E 103°55'0 0.1
2017-Jun-10 09:57N 01°17' E 103°55'0 0.1
2017-Jun-10 07:45N 01°17' E 103°55'0 0.1
2017-Jun-10 05:36N 01°17' E 103°55'0 0.2
2017-Jun-10 05:20N 01°17' E 103°55'0 0.0
2017-Jun-10 05:00N 01°17' E 103°55'0 0.0
2017-Jun-10 04:23N 01°17' E 103°55'0 0.0
2017-Jun-10 03:57N 01°17' E 103°55'0 0.0
2017-Jun-10 03:18N 01°17' E 103°55'0 0.1
2017-Jun-09 23:08N 01°17' E 103°55'0 0.5
2017-Jun-09 22:59N 01°17' E 103°55'3 5.8
2017-Jun-09 22:26N 01°16' E 103°58'1 3.4
2017-Jun-09 22:01N 01°16' E 103°60'4 5.8
2017-Jun-09 21:23N 01°16' E 104°03'  
2017-Jun-02 14:02N 22°38' E 119°49'5 9.0
2017-Jun-02 13:29N 22°42' E 119°50'  

Dump ship's entire track history